<?xml version="1.0" encoding="UTF-8" standalone="no" ?>
<gpx xmlns="http://www.topografix.com/GPX/1/1" xmlns:xsi="http://www.w3.org/2001/XMLSchema-instance" xsi:schemaLocation="http://www.topografix.com/GPX/1/1 http://www.topografix.com/GPX/1/1/gpx.xsd" version="1.1" creator="VisuGPX - https://www.visugpx.com">
  <metadata>
    <name>Randonnée du soir</name>
  </metadata>
  <trk>
    <name><![CDATA[Randonnée]]></name>
    <extensions>
      <line xmlns="http://www.topografix.com/GPX/gpx_style/0/2">
        <color>0000FF</color>
        <width>4</width>
      </line>
    </extensions>
    <trkseg>
      <trkpt lat="42.69439" lon="2.80427">
        <ele>77.135431</ele>
        <time>2022-05-04T16:36:01.474Z</time>
      </trkpt>
      <trkpt lat="42.6945" lon="2.80429">
        <ele>77.135431</ele>
        <time>2022-05-04T16:36:05.153Z</time>
      </trkpt>
      <trkpt lat="42.69459" lon="2.80427">
        <ele>77.135431</ele>
        <time>2022-05-04T16:36:09.146Z</time>
      </trkpt>
      <trkpt lat="42.69468" lon="2.80423">
        <ele>77.135431</ele>
        <time>2022-05-04T16:36:13.149Z</time>
      </trkpt>
      <trkpt lat="42.69477" lon="2.80418">
        <ele>77.135431</ele>
        <time>2022-05-04T16:36:17.166Z</time>
      </trkpt>
      <trkpt lat="42.69487" lon="2.80412">
        <ele>77.135431</ele>
        <time>2022-05-04T16:36:21.151Z</time>
      </trkpt>
      <trkpt lat="42.69496" lon="2.80406">
        <ele>77.135431</ele>
        <time>2022-05-04T16:36:25.148Z</time>
      </trkpt>
      <trkpt lat="42.69506" lon="2.80401">
        <ele>77.135431</ele>
        <time>2022-05-04T16:36:30.158Z</time>
      </trkpt>
      <trkpt lat="42.69515" lon="2.80399">
        <ele>77.135431</ele>
        <time>2022-05-04T16:36:34.150Z</time>
      </trkpt>
      <trkpt lat="42.69525" lon="2.80397">
        <ele>77.186815</ele>
        <time>2022-05-04T16:36:39.180Z</time>
      </trkpt>
      <trkpt lat="42.69534" lon="2.80393">
        <ele>78.571403</ele>
        <time>2022-05-04T16:36:44.182Z</time>
      </trkpt>
      <trkpt lat="42.69544" lon="2.80389">
        <ele>80.031611</ele>
        <time>2022-05-04T16:36:50.184Z</time>
      </trkpt>
      <trkpt lat="42.69554" lon="2.80386">
        <ele>81.484839</ele>
        <time>2022-05-04T16:36:57.201Z</time>
      </trkpt>
      <trkpt lat="42.69563" lon="2.8038">
        <ele>82.996495</ele>
        <time>2022-05-04T16:37:05.192Z</time>
      </trkpt>
      <trkpt lat="42.69572" lon="2.80375">
        <ele>84.318154</ele>
        <time>2022-05-04T16:37:12.182Z</time>
      </trkpt>
      <trkpt lat="42.69581" lon="2.80371">
        <ele>85.747069</ele>
        <time>2022-05-04T16:37:21.202Z</time>
      </trkpt>
      <trkpt lat="42.69591" lon="2.80369">
        <ele>87.217151</ele>
        <time>2022-05-04T16:37:30.185Z</time>
      </trkpt>
      <trkpt lat="42.69601" lon="2.80367">
        <ele>88.662754</ele>
        <time>2022-05-04T16:37:39.227Z</time>
      </trkpt>
      <trkpt lat="42.69611" lon="2.80368">
        <ele>90.102007</ele>
        <time>2022-05-04T16:38:03.233Z</time>
      </trkpt>
      <trkpt lat="42.6962" lon="2.80364">
        <ele>91.503652</ele>
        <time>2022-05-04T16:38:11.160Z</time>
      </trkpt>
      <trkpt lat="42.69629" lon="2.80362">
        <ele>92.887847</ele>
        <time>2022-05-04T16:38:19.178Z</time>
      </trkpt>
      <trkpt lat="42.69638" lon="2.80357">
        <ele>94.273317</ele>
        <time>2022-05-04T16:38:28.183Z</time>
      </trkpt>
      <trkpt lat="42.69648" lon="2.80356">
        <ele>95.701274</ele>
        <time>2022-05-04T16:38:37.149Z</time>
      </trkpt>
      <trkpt lat="42.69658" lon="2.80353">
        <ele>97.119041</ele>
        <time>2022-05-04T16:38:45.172Z</time>
      </trkpt>
      <trkpt lat="42.69667" lon="2.80351">
        <ele>98.555616</ele>
        <time>2022-05-04T16:38:54.179Z</time>
      </trkpt>
      <trkpt lat="42.69676" lon="2.80349">
        <ele>99.866492</ele>
        <time>2022-05-04T16:39:03.178Z</time>
      </trkpt>
      <trkpt lat="42.69685" lon="2.80346">
        <ele>101.195441</ele>
        <time>2022-05-04T16:39:12.196Z</time>
      </trkpt>
      <trkpt lat="42.69695" lon="2.80348">
        <ele>102.611036</ele>
        <time>2022-05-04T16:39:22.180Z</time>
      </trkpt>
      <trkpt lat="42.69698" lon="2.80359">
        <ele>103.346516</ele>
        <time>2022-05-04T16:39:33.222Z</time>
      </trkpt>
      <trkpt lat="42.69697" lon="2.80372">
        <ele>103.560375</ele>
        <time>2022-05-04T16:39:42.185Z</time>
      </trkpt>
      <trkpt lat="42.69697" lon="2.80385">
        <ele>103.779409</ele>
        <time>2022-05-04T16:39:52.172Z</time>
      </trkpt>
      <trkpt lat="42.69698" lon="2.80399">
        <ele>103.997979</ele>
        <time>2022-05-04T16:40:02.177Z</time>
      </trkpt>
      <trkpt lat="42.69697" lon="2.80412">
        <ele>104.222779</ele>
        <time>2022-05-04T16:40:12.172Z</time>
      </trkpt>
      <trkpt lat="42.69696" lon="2.80426">
        <ele>104.444967</ele>
        <time>2022-05-04T16:40:22.147Z</time>
      </trkpt>
      <trkpt lat="42.69694" lon="2.80438">
        <ele>104.654962</ele>
        <time>2022-05-04T16:40:32.179Z</time>
      </trkpt>
      <trkpt lat="42.69694" lon="2.80451">
        <ele>104.875647</ele>
        <time>2022-05-04T16:40:42.181Z</time>
      </trkpt>
      <trkpt lat="42.69693" lon="2.80464">
        <ele>105.089575</ele>
        <time>2022-05-04T16:40:51.195Z</time>
      </trkpt>
      <trkpt lat="42.69693" lon="2.80477">
        <ele>105.300067</ele>
        <time>2022-05-04T16:41:00.170Z</time>
      </trkpt>
      <trkpt lat="42.69692" lon="2.8049">
        <ele>105.5236</ele>
        <time>2022-05-04T16:41:10.180Z</time>
      </trkpt>
      <trkpt lat="42.69692" lon="2.80503">
        <ele>105.735638</ele>
        <time>2022-05-04T16:41:20.181Z</time>
      </trkpt>
      <trkpt lat="42.69692" lon="2.80517">
        <ele>105.957426</ele>
        <time>2022-05-04T16:41:30.180Z</time>
      </trkpt>
      <trkpt lat="42.69691" lon="2.80529">
        <ele>106.16296</ele>
        <time>2022-05-04T16:41:38.181Z</time>
      </trkpt>
      <trkpt lat="42.69691" lon="2.80542">
        <ele>106.378869</ele>
        <time>2022-05-04T16:41:47.180Z</time>
      </trkpt>
      <trkpt lat="42.6969" lon="2.80555">
        <ele>106.585799</ele>
        <time>2022-05-04T16:41:56.184Z</time>
      </trkpt>
      <trkpt lat="42.6969" lon="2.80567">
        <ele>106.794384</ele>
        <time>2022-05-04T16:42:05.180Z</time>
      </trkpt>
      <trkpt lat="42.69689" lon="2.8058">
        <ele>107.003326</ele>
        <time>2022-05-04T16:42:14.184Z</time>
      </trkpt>
      <trkpt lat="42.69688" lon="2.80592">
        <ele>107.206256</ele>
        <time>2022-05-04T16:42:23.174Z</time>
      </trkpt>
      <trkpt lat="42.69687" lon="2.80605">
        <ele>107.273797</ele>
        <time>2022-05-04T16:42:32.180Z</time>
      </trkpt>
      <trkpt lat="42.69687" lon="2.80618">
        <ele>107.250168</ele>
        <time>2022-05-04T16:42:42.178Z</time>
      </trkpt>
      <trkpt lat="42.69686" lon="2.8063">
        <ele>107.227589</ele>
        <time>2022-05-04T16:42:52.152Z</time>
      </trkpt>
      <trkpt lat="42.69685" lon="2.80642">
        <ele>107.205085</ele>
        <time>2022-05-04T16:43:02.182Z</time>
      </trkpt>
      <trkpt lat="42.69684" lon="2.80655">
        <ele>107.182386</ele>
        <time>2022-05-04T16:43:12.181Z</time>
      </trkpt>
      <trkpt lat="42.69684" lon="2.80667">
        <ele>107.159364</ele>
        <time>2022-05-04T16:43:22.184Z</time>
      </trkpt>
      <trkpt lat="42.69683" lon="2.80681">
        <ele>107.134865</ele>
        <time>2022-05-04T16:43:32.180Z</time>
      </trkpt>
      <trkpt lat="42.69683" lon="2.80694">
        <ele>107.110342</ele>
        <time>2022-05-04T16:43:42.178Z</time>
      </trkpt>
      <trkpt lat="42.69684" lon="2.80707">
        <ele>107.086982</ele>
        <time>2022-05-04T16:43:51.233Z</time>
      </trkpt>
      <trkpt lat="42.69689" lon="2.80717">
        <ele>107.063562</ele>
        <time>2022-05-04T16:44:01.180Z</time>
      </trkpt>
      <trkpt lat="42.69699" lon="2.80721">
        <ele>107.038554</ele>
        <time>2022-05-04T16:44:11.180Z</time>
      </trkpt>
      <trkpt lat="42.69709" lon="2.80723">
        <ele>107.013896</ele>
        <time>2022-05-04T16:44:21.207Z</time>
      </trkpt>
      <trkpt lat="42.69718" lon="2.80724">
        <ele>106.989527</ele>
        <time>2022-05-04T16:44:31.192Z</time>
      </trkpt>
      <trkpt lat="42.69728" lon="2.80724">
        <ele>106.964669</ele>
        <time>2022-05-04T16:44:41.177Z</time>
      </trkpt>
      <trkpt lat="42.69738" lon="2.80725">
        <ele>106.940607</ele>
        <time>2022-05-04T16:44:51.171Z</time>
      </trkpt>
      <trkpt lat="42.69747" lon="2.80727">
        <ele>106.917505</ele>
        <time>2022-05-04T16:45:01.178Z</time>
      </trkpt>
      <trkpt lat="42.69756" lon="2.8073">
        <ele>106.894841</ele>
        <time>2022-05-04T16:45:11.179Z</time>
      </trkpt>
      <trkpt lat="42.69765" lon="2.80732">
        <ele>106.871493</ele>
        <time>2022-05-04T16:45:21.173Z</time>
      </trkpt>
      <trkpt lat="42.69775" lon="2.80734">
        <ele>106.848062</ele>
        <time>2022-05-04T16:45:30.178Z</time>
      </trkpt>
      <trkpt lat="42.69784" lon="2.80735">
        <ele>106.755297</ele>
        <time>2022-05-04T16:45:40.179Z</time>
      </trkpt>
      <trkpt lat="42.69794" lon="2.80735">
        <ele>106.63336</ele>
        <time>2022-05-04T16:45:48.178Z</time>
      </trkpt>
      <trkpt lat="42.69803" lon="2.80734">
        <ele>106.508357</ele>
        <time>2022-05-04T16:45:59.179Z</time>
      </trkpt>
      <trkpt lat="42.69813" lon="2.80733">
        <ele>106.386401</ele>
        <time>2022-05-04T16:46:09.171Z</time>
      </trkpt>
      <trkpt lat="42.69822" lon="2.80733">
        <ele>106.267042</ele>
        <time>2022-05-04T16:46:19.228Z</time>
      </trkpt>
      <trkpt lat="42.69831" lon="2.80733">
        <ele>106.146398</ele>
        <time>2022-05-04T16:46:30.183Z</time>
      </trkpt>
      <trkpt lat="42.6984" lon="2.80731">
        <ele>106.031395</ele>
        <time>2022-05-04T16:46:39.155Z</time>
      </trkpt>
      <trkpt lat="42.6985" lon="2.80726">
        <ele>105.902868</ele>
        <time>2022-05-04T16:46:49.181Z</time>
      </trkpt>
      <trkpt lat="42.69859" lon="2.80727">
        <ele>105.787347</ele>
        <time>2022-05-04T16:46:59.154Z</time>
      </trkpt>
      <trkpt lat="42.69868" lon="2.80725">
        <ele>105.660167</ele>
        <time>2022-05-04T16:47:09.182Z</time>
      </trkpt>
      <trkpt lat="42.69878" lon="2.80724">
        <ele>105.540573</ele>
        <time>2022-05-04T16:47:18.174Z</time>
      </trkpt>
      <trkpt lat="42.69887" lon="2.80721">
        <ele>105.414042</ele>
        <time>2022-05-04T16:47:27.180Z</time>
      </trkpt>
      <trkpt lat="42.69897" lon="2.80716">
        <ele>105.2839</ele>
        <time>2022-05-04T16:47:36.144Z</time>
      </trkpt>
      <trkpt lat="42.69905" lon="2.8071">
        <ele>105.166429</ele>
        <time>2022-05-04T16:47:46.152Z</time>
      </trkpt>
      <trkpt lat="42.69895" lon="2.80714">
        <ele>105.041354</ele>
        <time>2022-05-04T16:47:54.180Z</time>
      </trkpt>
      <trkpt lat="42.69888" lon="2.80723">
        <ele>104.914469</ele>
        <time>2022-05-04T16:48:03.194Z</time>
      </trkpt>
      <trkpt lat="42.69879" lon="2.80728">
        <ele>104.787431</ele>
        <time>2022-05-04T16:48:13.181Z</time>
      </trkpt>
      <trkpt lat="42.6987" lon="2.8073">
        <ele>104.664198</ele>
        <time>2022-05-04T16:48:24.177Z</time>
      </trkpt>
      <trkpt lat="42.69861" lon="2.8073">
        <ele>104.546126</ele>
        <time>2022-05-04T16:48:35.183Z</time>
      </trkpt>
      <trkpt lat="42.69851" lon="2.8073">
        <ele>104.497045</ele>
        <time>2022-05-04T16:48:45.180Z</time>
      </trkpt>
      <trkpt lat="42.69842" lon="2.80732">
        <ele>104.455207</ele>
        <time>2022-05-04T16:48:54.182Z</time>
      </trkpt>
      <trkpt lat="42.69833" lon="2.80732">
        <ele>104.415288</ele>
        <time>2022-05-04T16:49:03.186Z</time>
      </trkpt>
      <trkpt lat="42.69823" lon="2.80732">
        <ele>104.374944</ele>
        <time>2022-05-04T16:49:13.174Z</time>
      </trkpt>
      <trkpt lat="42.69814" lon="2.80733">
        <ele>104.3328</ele>
        <time>2022-05-04T16:49:22.182Z</time>
      </trkpt>
      <trkpt lat="42.69804" lon="2.80733">
        <ele>104.290289</ele>
        <time>2022-05-04T16:49:31.185Z</time>
      </trkpt>
      <trkpt lat="42.69794" lon="2.80733">
        <ele>104.247325</ele>
        <time>2022-05-04T16:49:40.166Z</time>
      </trkpt>
      <trkpt lat="42.69784" lon="2.80734">
        <ele>104.206114</ele>
        <time>2022-05-04T16:49:49.174Z</time>
      </trkpt>
      <trkpt lat="42.69775" lon="2.80733">
        <ele>104.164004</ele>
        <time>2022-05-04T16:49:59.279Z</time>
      </trkpt>
      <trkpt lat="42.69765" lon="2.80731">
        <ele>104.122314</ele>
        <time>2022-05-04T16:50:09.174Z</time>
      </trkpt>
      <trkpt lat="42.69755" lon="2.8073">
        <ele>104.079115</ele>
        <time>2022-05-04T16:50:19.175Z</time>
      </trkpt>
      <trkpt lat="42.69746" lon="2.80729">
        <ele>104.039154</ele>
        <time>2022-05-04T16:50:28.189Z</time>
      </trkpt>
      <trkpt lat="42.69737" lon="2.80725">
        <ele>103.996027</ele>
        <time>2022-05-04T16:50:38.177Z</time>
      </trkpt>
      <trkpt lat="42.69728" lon="2.80723">
        <ele>103.956853</ele>
        <time>2022-05-04T16:50:47.175Z</time>
      </trkpt>
      <trkpt lat="42.69718" lon="2.80721">
        <ele>103.915808</ele>
        <time>2022-05-04T16:50:56.169Z</time>
      </trkpt>
      <trkpt lat="42.69709" lon="2.80721">
        <ele>103.875456</ele>
        <time>2022-05-04T16:51:05.183Z</time>
      </trkpt>
      <trkpt lat="42.69699" lon="2.8072">
        <ele>103.833745</ele>
        <time>2022-05-04T16:51:14.184Z</time>
      </trkpt>
      <trkpt lat="42.69691" lon="2.80716">
        <ele>103.793301</ele>
        <time>2022-05-04T16:51:24.175Z</time>
      </trkpt>
      <trkpt lat="42.69684" lon="2.80706">
        <ele>103.741705</ele>
        <time>2022-05-04T16:51:34.237Z</time>
      </trkpt>
      <trkpt lat="42.69683" lon="2.80693">
        <ele>103.522456</ele>
        <time>2022-05-04T16:51:44.179Z</time>
      </trkpt>
      <trkpt lat="42.69683" lon="2.80681">
        <ele>103.301783</ele>
        <time>2022-05-04T16:51:54.178Z</time>
      </trkpt>
      <trkpt lat="42.69684" lon="2.80668">
        <ele>103.079035</ele>
        <time>2022-05-04T16:52:03.179Z</time>
      </trkpt>
      <trkpt lat="42.69684" lon="2.80655">
        <ele>102.861833</ele>
        <time>2022-05-04T16:52:12.177Z</time>
      </trkpt>
      <trkpt lat="42.69684" lon="2.80643">
        <ele>102.648207</ele>
        <time>2022-05-04T16:52:22.218Z</time>
      </trkpt>
      <trkpt lat="42.69685" lon="2.80629">
        <ele>102.404337</ele>
        <time>2022-05-04T16:52:31.182Z</time>
      </trkpt>
      <trkpt lat="42.69686" lon="2.80616">
        <ele>102.176794</ele>
        <time>2022-05-04T16:52:40.206Z</time>
      </trkpt>
      <trkpt lat="42.69687" lon="2.80604">
        <ele>101.961328</ele>
        <time>2022-05-04T16:52:49.194Z</time>
      </trkpt>
      <trkpt lat="42.69688" lon="2.8059">
        <ele>101.729143</ele>
        <time>2022-05-04T16:52:59.175Z</time>
      </trkpt>
      <trkpt lat="42.69689" lon="2.80578">
        <ele>101.505366</ele>
        <time>2022-05-04T16:53:08.172Z</time>
      </trkpt>
      <trkpt lat="42.69689" lon="2.80564">
        <ele>101.26913</ele>
        <time>2022-05-04T16:53:18.163Z</time>
      </trkpt>
      <trkpt lat="42.69691" lon="2.80551">
        <ele>101.044025</ele>
        <time>2022-05-04T16:53:27.168Z</time>
      </trkpt>
      <trkpt lat="42.69692" lon="2.80538">
        <ele>100.810113</ele>
        <time>2022-05-04T16:53:37.177Z</time>
      </trkpt>
      <trkpt lat="42.69692" lon="2.80525">
        <ele>100.587767</ele>
        <time>2022-05-04T16:53:46.171Z</time>
      </trkpt>
      <trkpt lat="42.69693" lon="2.80513">
        <ele>100.376303</ele>
        <time>2022-05-04T16:53:55.176Z</time>
      </trkpt>
      <trkpt lat="42.69694" lon="2.805">
        <ele>100.155125</ele>
        <time>2022-05-04T16:54:04.175Z</time>
      </trkpt>
      <trkpt lat="42.69694" lon="2.80488">
        <ele>99.942775</ele>
        <time>2022-05-04T16:54:13.179Z</time>
      </trkpt>
      <trkpt lat="42.69694" lon="2.80475">
        <ele>99.710011</ele>
        <time>2022-05-04T16:54:22.168Z</time>
      </trkpt>
      <trkpt lat="42.69695" lon="2.80462">
        <ele>99.517101</ele>
        <time>2022-05-04T16:54:31.173Z</time>
      </trkpt>
      <trkpt lat="42.69696" lon="2.80449">
        <ele>99.714811</ele>
        <time>2022-05-04T16:54:40.177Z</time>
      </trkpt>
      <trkpt lat="42.69696" lon="2.80436">
        <ele>99.927463</ele>
        <time>2022-05-04T16:54:50.171Z</time>
      </trkpt>
      <trkpt lat="42.69696" lon="2.80422">
        <ele>100.140338</ele>
        <time>2022-05-04T16:54:59.180Z</time>
      </trkpt>
      <trkpt lat="42.69696" lon="2.80409">
        <ele>100.345231</ele>
        <time>2022-05-04T16:55:08.189Z</time>
      </trkpt>
      <trkpt lat="42.69697" lon="2.80396">
        <ele>100.552681</ele>
        <time>2022-05-04T16:55:17.181Z</time>
      </trkpt>
      <trkpt lat="42.69698" lon="2.80383">
        <ele>100.754751</ele>
        <time>2022-05-04T16:55:26.181Z</time>
      </trkpt>
      <trkpt lat="42.69701" lon="2.8037">
        <ele>100.960319</ele>
        <time>2022-05-04T16:55:35.183Z</time>
      </trkpt>
      <trkpt lat="42.69702" lon="2.80358">
        <ele>101.153357</ele>
        <time>2022-05-04T16:55:44.178Z</time>
      </trkpt>
      <trkpt lat="42.69699" lon="2.80346">
        <ele>101.352205</ele>
        <time>2022-05-04T16:55:54.181Z</time>
      </trkpt>
      <trkpt lat="42.6969" lon="2.80342">
        <ele>101.554088</ele>
        <time>2022-05-04T16:56:03.181Z</time>
      </trkpt>
      <trkpt lat="42.6968" lon="2.80345">
        <ele>101.763035</ele>
        <time>2022-05-04T16:56:12.168Z</time>
      </trkpt>
      <trkpt lat="42.69671" lon="2.80346">
        <ele>101.957363</ele>
        <time>2022-05-04T16:56:20.179Z</time>
      </trkpt>
      <trkpt lat="42.69662" lon="2.80348">
        <ele>102.15579</ele>
        <time>2022-05-04T16:56:29.172Z</time>
      </trkpt>
      <trkpt lat="42.69652" lon="2.80351">
        <ele>102.365307</ele>
        <time>2022-05-04T16:56:38.180Z</time>
      </trkpt>
      <trkpt lat="42.69643" lon="2.80353">
        <ele>102.558581</ele>
        <time>2022-05-04T16:56:46.177Z</time>
      </trkpt>
      <trkpt lat="42.69634" lon="2.80355">
        <ele>102.754181</ele>
        <time>2022-05-04T16:56:54.170Z</time>
      </trkpt>
      <trkpt lat="42.69626" lon="2.80359">
        <ele>102.946515</ele>
        <time>2022-05-04T16:57:02.182Z</time>
      </trkpt>
      <trkpt lat="42.69616" lon="2.8036">
        <ele>103.14326</ele>
        <time>2022-05-04T16:57:10.217Z</time>
      </trkpt>
      <trkpt lat="42.69607" lon="2.80363">
        <ele>103.328575</ele>
        <time>2022-05-04T16:57:19.176Z</time>
      </trkpt>
      <trkpt lat="42.69597" lon="2.80366">
        <ele>103.328575</ele>
        <time>2022-05-04T16:57:29.181Z</time>
      </trkpt>
      <trkpt lat="42.69588" lon="2.80368">
        <ele>103.328575</ele>
        <time>2022-05-04T16:57:37.177Z</time>
      </trkpt>
      <trkpt lat="42.69579" lon="2.80373">
        <ele>103.328575</ele>
        <time>2022-05-04T16:57:46.164Z</time>
      </trkpt>
      <trkpt lat="42.69569" lon="2.80374">
        <ele>103.328575</ele>
        <time>2022-05-04T16:57:56.218Z</time>
      </trkpt>
      <trkpt lat="42.6956" lon="2.80377">
        <ele>103.328575</ele>
        <time>2022-05-04T16:58:05.183Z</time>
      </trkpt>
      <trkpt lat="42.69551" lon="2.80379">
        <ele>103.328575</ele>
        <time>2022-05-04T16:58:14.213Z</time>
      </trkpt>
      <trkpt lat="42.69541" lon="2.80379">
        <ele>103.328575</ele>
        <time>2022-05-04T16:58:24.181Z</time>
      </trkpt>
      <trkpt lat="42.69532" lon="2.80378">
        <ele>103.328575</ele>
        <time>2022-05-04T16:58:35.173Z</time>
      </trkpt>
      <trkpt lat="42.69523" lon="2.80378">
        <ele>103.328575</ele>
        <time>2022-05-04T16:58:45.178Z</time>
      </trkpt>
      <trkpt lat="42.69513" lon="2.80378">
        <ele>103.328575</ele>
        <time>2022-05-04T16:58:56.201Z</time>
      </trkpt>
      <trkpt lat="42.69504" lon="2.80378">
        <ele>103.328575</ele>
        <time>2022-05-04T16:59:06.194Z</time>
      </trkpt>
      <trkpt lat="42.69494" lon="2.80376">
        <ele>103.328575</ele>
        <time>2022-05-04T16:59:15.180Z</time>
      </trkpt>
      <trkpt lat="42.69484" lon="2.80377">
        <ele>103.328575</ele>
        <time>2022-05-04T16:59:25.179Z</time>
      </trkpt>
      <trkpt lat="42.69475" lon="2.80377">
        <ele>103.328575</ele>
        <time>2022-05-04T16:59:34.163Z</time>
      </trkpt>
      <trkpt lat="42.69466" lon="2.80378">
        <ele>103.328575</ele>
        <time>2022-05-04T16:59:43.181Z</time>
      </trkpt>
      <trkpt lat="42.69456" lon="2.80377">
        <ele>103.328575</ele>
        <time>2022-05-04T16:59:52.177Z</time>
      </trkpt>
      <trkpt lat="42.69447" lon="2.80379">
        <ele>103.328575</ele>
        <time>2022-05-04T17:00:01.142Z</time>
      </trkpt>
      <trkpt lat="42.69437" lon="2.80378">
        <ele>103.328575</ele>
        <time>2022-05-04T17:00:10.186Z</time>
      </trkpt>
      <trkpt lat="42.6943" lon="2.80386">
        <ele>103.328575</ele>
        <time>2022-05-04T17:00:20.168Z</time>
      </trkpt>
      <trkpt lat="42.6943" lon="2.80399">
        <ele>103.328575</ele>
        <time>2022-05-04T17:00:29.198Z</time>
      </trkpt>
      <trkpt lat="42.69431" lon="2.80412">
        <ele>103.328575</ele>
        <time>2022-05-04T17:00:37.166Z</time>
      </trkpt>
      <trkpt lat="42.69426" lon="2.80423">
        <ele>103.328575</ele>
        <time>2022-05-04T17:00:46.184Z</time>
      </trkpt>
      <trkpt lat="42.6942" lon="2.80433">
        <ele>103.328575</ele>
        <time>2022-05-04T17:00:55.181Z</time>
      </trkpt>
      <trkpt lat="42.69413" lon="2.80441">
        <ele>103.328575</ele>
        <time>2022-05-04T17:01:24.808Z</time>
      </trkpt>
    </trkseg>
  </trk>
</gpx>